Archival Weather

Norman Y Mineta San Jose Intl

San Jose, California (KSJC)

Report from: Saturday, September 30, 2023 12:53 PM PDT
Current time: Thursday, July 18, 2024 6:43 PM PDT

Current weather – Weather history – Daily summaries
Weather forecast

Temperature18.3°C (64.9°F)
Dew point11.7°C (53.1°F)
Winds 3 kts (1.5 m/s, 3.5 mph) North-Northeast (30°)
Visibility10 mi. (16.1 km)
Clouds Few clouds 900 ft. (274 m)
Ceiling: Broken clouds 2,600 ft. (792 m)
Overcast 3,400 ft. (1,036 m)
Altimeter29.82 in.Hg (1010 mB)
Relative humidity65 %
Density altitude701 ft. (214 m)
Sea-level pressure101.0 kPa (1010 mB, 29.82 in.Hg)
Remarks Automated weather observing station with precipitation discriminator
Flight conditions Marginal Visual Meteorological Conditions
Raw dataKSJC 301953Z 03003KT 10SM FEW009 BKN026 OVC034 18/12 A2982 RMK AO2 SLP097 T01830117
An error has occurred. This application may no longer respond until reloaded. Reload 🗙